Time;durP1;ratioP1;P1;durP2;ratioP2;P2;SDS_P1;SDS_P2;PMS_P1;PMS_P2;Temp;Humidity;BMP_temperature;BMP_pressure;BME280_temperature;BME280_humidity;BME280_pressure;Samples;Min_cycle;Max_cycle;Signal;HPM_P1;HPM_P2
2021/05/29 00:00:50;;;;;;;10.90;4.78;;;;;;;;;;3536992;40;20102;-66
2021/05/29 00:03:16;;;;;;;10.48;3.83;;;;;;;;;;3534686;40;20125;-66
2021/05/29 00:05:43;;;;;;;5.15;3.90;;;;;;;;;;3537824;40;20058;-66
2021/05/29 00:08:09;;;;;;;9.60;3.65;;;;;;;;;;3536744;40;20052;-66
2021/05/29 00:10:36;;;;;;;7.72;3.75;;;;;;;;;;3535097;40;20045;-66
2021/05/29 00:13:03;;;;;;;6.15;3.80;;;;;;;;;;3524466;40;20039;-66
2021/05/29 00:15:29;;;;;;;6.18;4.22;;;;;;;;;;3534332;40;20055;-66
2021/05/29 00:17:55;;;;;;;7.93;5.43;;;;;;;;;;3532571;40;20047;-66
2021/05/29 00:20:22;;;;;;;12.93;6.43;;;;;;;;;;3533502;40;20030;-65
2021/05/29 00:22:49;;;;;;;8.70;5.60;;;;;;;;;;3536605;40;20035;-67
2021/05/29 00:25:16;;;;;;;12.05;6.35;;;;;;;;;;3533859;40;20074;-66
2021/05/29 00:27:42;;;;;;;13.38;6.20;;;;;;;;;;3537310;40;20069;-67
2021/05/29 00:30:10;;;;;;;40.75;9.52;;;;;;;;;;3532988;40;20166;-67
2021/05/29 00:32:37;;;;;;;32.95;7.43;;;;;;;;;;3533950;40;20420;-66
2021/05/29 00:35:03;;;;;;;62.78;9.85;;;;;;;;;;3535698;40;20059;-66
2021/05/29 00:37:29;;;;;;;52.40;9.13;;;;;;;;;;3534717;40;20039;-66
2021/05/29 00:39:55;;;;;;;43.42;9.02;;;;;;;;;;3532475;40;20059;-66
2021/05/29 00:42:21;;;;;;;46.33;9.35;;;;;;;;;;3532513;40;20030;-66
2021/05/29 00:44:52;;;;;;;25.77;6.28;;;;;;;;;;3535407;40;20745;-66
2021/05/29 00:47:19;;;;;;;29.73;8.13;;;;;;;;;;3536928;40;20341;-66
2021/05/29 00:49:45;;;;;;;46.20;10.45;;;;;;;;;;3536696;40;20035;-66
2021/05/29 00:52:13;;;;;;;6.65;3.30;;;;;;;;;;3532891;40;20121;-66
2021/05/29 00:54:39;;;;;;;5.43;3.50;;;;;;;;;;3534285;40;20041;-67
2021/05/29 00:57:05;;;;;;;36.15;7.38;;;;;;;;;;3535941;40;20054;-66
2021/05/29 00:59:32;;;;;;;28.60;6.05;;;;;;;;;;3536059;40;20047;-66
2021/05/29 01:01:58;;;;;;;87.65;12.50;;;;;;;;;;3534785;40;20035;-66
2021/05/29 01:04:24;;;;;;;69.28;10.57;;;;;;;;;;3534591;40;20050;-65
2021/05/29 01:06:50;;;;;;;58.47;10.18;;;;;;;;;;3533469;40;20062;-66
2021/05/29 01:09:17;;;;;;;27.85;7.07;;;;;;;;;;3537603;40;20062;-65
2021/05/29 01:11:43;;;;;;;34.55;6.25;;;;;;;;;;3538472;40;20042;-67
2021/05/29 01:14:09;;;;;;;60.83;8.75;;;;;;;;;;3535802;40;20078;-66
2021/05/29 01:19:04;;;;;;;82.60;9.98;;;;;;;;;;3534256;40;20079;-66
2021/05/29 01:21:31;;;;;;;97.00;11.75;;;;;;;;;;3531682;40;20500;-66
2021/05/29 01:23:57;;;;;;;111.15;13.23;;;;;;;;;;3533130;40;20597;-66
2021/05/29 01:26:23;;;;;;;103.60;12.52;;;;;;;;;;3534091;40;20082;-66
2021/05/29 01:28:56;;;;;;;74.38;10.45;;;;;;;;;;3535337;40;20030;-66
2021/05/29 01:31:28;;;;;;;101.75;12.82;;;;;;;;;;3537341;40;20424;-66
2021/05/29 01:33:55;;;;;;;96.05;11.60;;;;;;;;;;3538332;40;20189;-65
2021/05/29 01:36:22;;;;;;;89.95;11.38;;;;;;;;;;3532029;40;20026;-66
2021/05/29 01:38:48;;;;;;;95.30;12.35;;;;;;;;;;3534825;40;20053;-66
2021/05/29 01:41:16;;;;;;;60.42;8.77;;;;;;;;;;3536411;40;20055;-65
2021/05/29 01:43:42;;;;;;;72.00;9.75;;;;;;;;;;3535825;40;20122;-66
2021/05/29 01:46:09;;;;;;;76.05;10.40;;;;;;;;;;3538023;40;20476;-66
2021/05/29 01:48:43;;;;;;;87.05;11.65;;;;;;;;;;3540576;40;20083;-66
2021/05/29 01:51:10;;;;;;;86.35;11.15;;;;;;;;;;3534830;40;20791;-66
2021/05/29 01:53:36;;;;;;;93.53;11.40;;;;;;;;;;3535195;40;20140;-66
2021/05/29 01:56:03;;;;;;;90.68;10.98;;;;;;;;;;3534492;40;20031;-65
2021/05/29 01:58:29;;;;;;;99.95;11.80;;;;;;;;;;3535652;40;20082;-66
2021/05/29 02:00:56;;;;;;;88.88;12.15;;;;;;;;;;3531962;40;20054;-66
2021/05/29 02:03:22;;;;;;;95.78;12.23;;;;;;;;;;3534558;40;20062;-66
2021/05/29 02:05:48;;;;;;;108.80;12.57;;;;;;;;;;3535567;40;20038;-65
2021/05/29 02:08:15;;;;;;;102.03;12.88;;;;;;;;;;3536378;40;20117;-65
2021/05/29 02:10:45;;;;;;;101.82;12.43;;;;;;;;;;3534613;40;20112;-65
2021/05/29 02:13:12;;;;;;;58.30;9.52;;;;;;;;;;3539637;40;20152;-67
2021/05/29 02:15:39;;;;;;;14.55;6.68;;;;;;;;;;3533258;40;20054;-66
2021/05/29 02:18:07;;;;;;;106.78;14.02;;;;;;;;;;3535753;40;20417;-67
2021/05/29 02:20:42;;;;;;;115.93;13.52;;;;;;;;;;3535889;40;20039;-67
2021/05/29 02:23:08;;;;;;;93.47;12.05;;;;;;;;;;3536919;40;20041;-66
2021/05/29 02:25:35;;;;;;;96.43;11.93;;;;;;;;;;3532864;40;20042;-66
2021/05/29 02:28:01;;;;;;;80.82;10.65;;;;;;;;;;3536901;40;20597;-66
2021/05/29 02:30:27;;;;;;;122.93;14.70;;;;;;;;;;3533667;40;20035;-67
2021/05/29 02:32:54;;;;;;;168.90;58.65;;;;;;;;;;3537883;40;20038;-67
2021/05/29 02:35:20;;;;;;;164.98;53.92;;;;;;;;;;3536691;40;20039;-67
2021/05/29 02:37:46;;;;;;;178.88;49.53;;;;;;;;;;3537502;40;20413;-67
2021/05/29 02:40:13;;;;;;;132.35;15.60;;;;;;;;;;3538181;40;20501;-67
2021/05/29 02:42:40;;;;;;;100.40;13.55;;;;;;;;;;3540189;40;20047;-67
2021/05/29 02:45:06;;;;;;;149.15;18.17;;;;;;;;;;3534411;40;20035;-68
2021/05/29 02:47:32;;;;;;;124.35;15.55;;;;;;;;;;3536245;40;20288;-66
2021/05/29 02:49:59;;;;;;;102.90;13.75;;;;;;;;;;3533805;40;20027;-66
2021/05/29 02:52:25;;;;;;;130.27;15.85;;;;;;;;;;3535842;40;20404;-67
2021/05/29 02:54:51;;;;;;;136.50;17.17;;;;;;;;;;3530433;40;20038;-67
2021/05/29 02:57:17;;;;;;;141.73;17.70;;;;;;;;;;3533520;40;20046;-67
2021/05/29 02:59:43;;;;;;;245.10;28.63;;;;;;;;;;3534609;40;20034;-66
2021/05/29 03:02:10;;;;;;;119.97;15.05;;;;;;;;;;3536028;40;20792;-66
2021/05/29 03:04:36;;;;;;;134.80;17.17;;;;;;;;;;3535160;40;20028;-67
2021/05/29 03:07:03;;;;;;;138.40;17.48;;;;;;;;;;3534539;40;20031;-66
2021/05/29 03:09:29;;;;;;;130.65;16.45;;;;;;;;;;3535204;40;20031;-66
2021/05/29 03:11:56;;;;;;;183.27;21.52;;;;;;;;;;3534608;40;20031;-68
2021/05/29 03:14:22;;;;;;;131.50;17.05;;;;;;;;;;3535949;40;20585;-67
2021/05/29 03:16:49;;;;;;;119.63;16.00;;;;;;;;;;3535709;40;20046;-64
2021/05/29 03:19:16;;;;;;;132.98;17.50;;;;;;;;;;3538844;40;20041;-65
2021/05/29 03:21:42;;;;;;;144.98;18.50;;;;;;;;;;3531556;40;20632;-67
2021/05/29 03:24:08;;;;;;;150.63;19.05;;;;;;;;;;3534840;40;20035;-66
2021/05/29 03:26:35;;;;;;;134.88;17.90;;;;;;;;;;3537776;40;20031;-66
2021/05/29 03:29:01;;;;;;;104.57;14.80;;;;;;;;;;3527123;40;20797;-67
2021/05/29 03:31:28;;;;;;;137.15;18.10;;;;;;;;;;3536849;40;20034;-66
2021/05/29 03:33:54;;;;;;;146.60;19.10;;;;;;;;;;3535328;40;20035;-68
2021/05/29 03:36:20;;;;;;;141.40;19.50;;;;;;;;;;3537448;40;20050;-66
2021/05/29 03:38:46;;;;;;;145.05;19.95;;;;;;;;;;3535215;40;20066;-66
2021/05/29 03:41:12;;;;;;;157.48;21.33;;;;;;;;;;3534273;40;20393;-66
2021/05/29 03:43:38;;;;;;;145.75;18.60;;;;;;;;;;3533151;40;20031;-66
2021/05/29 03:46:05;;;;;;;130.88;18.52;;;;;;;;;;3531627;40;20054;-68
2021/05/29 03:48:32;;;;;;;142.10;19.75;;;;;;;;;;3537428;40;20041;-66
2021/05/29 03:50:58;;;;;;;115.07;16.52;;;;;;;;;;3535972;40;20425;-68
2021/05/29 03:53:24;;;;;;;131.10;18.55;;;;;;;;;;3537419;40;20041;-66
2021/05/29 03:55:50;;;;;;;126.03;17.05;;;;;;;;;;3538879;40;20034;-66
2021/05/29 03:58:17;;;;;;;126.03;17.25;;;;;;;;;;3540794;40;20034;-66
2021/05/29 04:00:43;;;;;;;101.30;15.68;;;;;;;;;;3540224;40;20053;-66
2021/05/29 04:03:09;;;;;;;105.18;15.27;;;;;;;;;;3539531;40;20115;-66
2021/05/29 04:05:35;;;;;;;134.30;18.33;;;;;;;;;;3536886;40;20179;-64
2021/05/29 04:08:01;;;;;;;128.82;18.05;;;;;;;;;;3536616;40;20093;-65
2021/05/29 04:10:28;;;;;;;129.80;19.23;;;;;;;;;;3535768;40;20132;-68
2021/05/29 04:12:55;;;;;;;121.32;18.30;;;;;;;;;;3538285;40;20073;-66
2021/05/29 04:15:21;;;;;;;105.72;16.38;;;;;;;;;;3537489;40;20125;-66
2021/05/29 04:17:48;;;;;;;23.05;10.32;;;;;;;;;;3535560;40;20047;-66
2021/05/29 04:20:15;;;;;;;22.92;10.07;;;;;;;;;;3536563;40;20046;-64
2021/05/29 04:22:42;;;;;;;22.50;10.77;;;;;;;;;;3535440;40;20042;-66
2021/05/29 04:25:09;;;;;;;25.92;11.02;;;;;;;;;;3536996;40;20039;-66
2021/05/29 04:27:35;;;;;;;27.33;11.52;;;;;;;;;;3532006;40;20031;-66
2021/05/29 04:30:02;;;;;;;34.22;12.85;;;;;;;;;;3533882;40;20073;-66
2021/05/29 04:32:28;;;;;;;26.83;12.32;;;;;;;;;;3537127;40;20593;-66
2021/05/29 04:34:54;;;;;;;27.98;11.55;;;;;;;;;;3538196;40;20555;-66
2021/05/29 04:37:20;;;;;;;24.80;11.27;;;;;;;;;;3533035;40;20105;-66
2021/05/29 04:39:46;;;;;;;27.67;12.43;;;;;;;;;;3537079;40;20132;-66
2021/05/29 04:42:13;;;;;;;22.77;10.95;;;;;;;;;;3538277;40;20038;-66
2021/05/29 04:44:39;;;;;;;23.33;11.50;;;;;;;;;;3535380;40;20581;-66
2021/05/29 04:47:05;;;;;;;21.52;10.18;;;;;;;;;;3536399;40;20049;-66
2021/05/29 04:49:31;;;;;;;23.70;10.07;;;;;;;;;;3537290;40;20038;-66
2021/05/29 04:51:58;;;;;;;22.70;10.63;;;10.10;99.90;;;;;;3534764;40;20034;-66
2021/05/29 04:54:24;;;;;;;21.30;10.35;;;;;;;;;;3539045;40;20073;-66
2021/05/29 04:56:50;;;;;;;24.13;10.70;;;;;;;;;;3533131;40;20035;-66
2021/05/29 04:59:16;;;;;;;23.48;10.88;;;;;;;;;;3536231;40;20030;-66
2021/05/29 05:01:42;;;;;;;26.15;10.88;;;;;;;;;;3535897;40;20045;-66
2021/05/29 05:04:08;;;;;;;29.33;12.38;;;;;;;;;;3538572;40;20046;-66
2021/05/29 05:06:35;;;;;;;25.38;10.73;;;;;;;;;;3535760;40;20082;-66
2021/05/29 05:09:01;;;;;;;25.23;11.48;;;;;;;;;;3533109;40;20050;-66
2021/05/29 05:11:27;;;;;;;32.97;13.68;;;;;;;;;;3536811;40;20039;-66
2021/05/29 05:13:53;;;;;;;24.10;10.85;;;;;;;;;;3538642;40;20038;-66
2021/05/29 05:16:20;;;;;;;26.58;11.30;;;;;;;;;;3538904;40;20050;-66
2021/05/29 05:18:46;;;;;;;28.45;12.77;;;;;;;;;;3536897;40;20046;-66
2021/05/29 05:21:12;;;;;;;32.47;12.57;;;;;;;;;;3539248;40;20034;-66
2021/05/29 05:23:39;;;;;;;24.42;11.32;;;;;;;;;;3537090;40;20026;-65
2021/05/29 05:26:06;;;;;;;30.48;11.65;;;;;;;;;;3535683;40;20052;-66
2021/05/29 05:28:32;;;;;;;32.60;13.20;;;;;;;;;;3537741;40;20502;-66
2021/05/29 05:31:04;;;;;;;42.03;13.57;;;;;;;;;;3533575;40;20780;-66
2021/05/29 05:33:31;;;;;;;32.85;11.48;;;;;;;;;;3531777;40;20042;-66
2021/05/29 05:35:57;;;;;;;22.38;9.57;;;;;;;;;;3538317;40;20066;-66
2021/05/29 05:38:23;;;;;;;28.55;11.88;;;;;;;;;;3536444;40;20038;-66
2021/05/29 05:40:52;;;;;;;25.23;11.00;;;;;;;;;;3535577;40;20128;-66
2021/05/29 05:43:18;;;;;;;33.78;12.95;;;;;;;;;;3533411;40;20054;-66
2021/05/29 05:45:44;;;;;;;37.38;13.02;;;;;;;;;;3537428;40;20027;-66
2021/05/29 05:48:11;;;;;;;43.15;14.50;;;;;;;;;;3532023;40;20019;-66
2021/05/29 05:50:51;;;;;;;24.10;11.30;;;;;;;;;;3535123;40;20120;-66
2021/05/29 05:53:17;;;;;;;24.95;11.25;;;;;;;;;;3535456;40;20090;-66
2021/05/29 05:55:43;;;;;;;33.15;11.95;;;;;;;;;;3538135;40;20034;-66
2021/05/29 05:58:10;;;;;;;22.65;10.75;;;;;;;;;;3537629;40;20495;-66
2021/05/29 06:00:36;;;;;;;27.60;11.73;;;;;;;;;;3538149;40;20031;-66
2021/05/29 06:03:02;;;;;;;25.88;11.88;;;;;;;;;;3537908;40;20042;-66
2021/05/29 06:05:28;;;;;;;31.27;12.95;;;;;;;;;;3535440;40;20094;-66
2021/05/29 06:07:54;;;;;;;40.83;14.57;;;;;;;;;;3537928;40;20066;-66
2021/05/29 06:10:20;;;;;;;27.17;12.43;;;;;;;;;;3539342;40;20035;-66
2021/05/29 06:12:50;;;;;;;22.67;10.75;;;;;;;;;;3539159;40;20061;-66
2021/05/29 06:20:49;;;;;;;27.53;14.27;;;;;;;;;;3537251;40;20048;-65
2021/05/29 06:23:15;;;;;;;30.90;14.18;;;;;;;;;;3538330;40;20293;-66
2021/05/29 06:25:41;;;;;;;33.33;13.38;;;;;;;;;;3537672;40;20030;-66
2021/05/29 06:28:07;;;;;;;30.45;14.45;;;;;;;;;;3528844;40;20426;-66
2021/05/29 06:30:34;;;;;;;41.50;15.10;;;;;;;;;;3535866;40;20392;-66
2021/05/29 06:33:00;;;;;;;37.63;15.23;;;;;;;;;;3537343;40;20098;-66
2021/05/29 06:35:26;;;;;;;31.38;13.70;;;;;;;;;;3538575;40;20042;-66
2021/05/29 06:37:53;;;;;;;28.48;12.75;;;;;;;;;;3539367;40;20693;-66
2021/05/29 06:40:19;;;;;;;32.20;14.07;;;;;;;;;;3534993;40;20141;-66
2021/05/29 06:42:45;;;;;;;28.67;14.00;;;;;;;;;;3537422;40;20034;-65
2021/05/29 06:45:11;;;;;;;44.72;14.73;;;;;;;;;;3537658;40;20054;-65
2021/05/29 06:47:38;;;;;;;28.23;13.35;;;;;;;;;;3535505;40;20058;-65
2021/05/29 06:50:05;;;;;;;47.35;15.32;;;;;;;;;;3530274;40;20058;-65
2021/05/29 06:52:33;;;;;;;38.47;14.65;;;;;;;;;;3537218;40;20132;-68
2021/05/29 07:00:10;;;;;;;65.10;15.87;;;;;;;;;;3538514;40;20166;-67
2021/05/29 07:02:37;;;;;;;124.55;19.80;;;;;;;;;;3535673;40;20051;-67
2021/05/29 07:05:05;;;;;;;118.68;18.25;;;;;;;;;;3532719;40;20039;-67
2021/05/29 07:07:31;;;;;;;85.25;19.65;;;;;;;;;;3536222;40;20727;-67
2021/05/29 07:09:57;;;;;;;57.50;14.55;;;;;;;;;;3538843;40;20049;-68
2021/05/29 07:12:24;;;;;;;73.75;16.67;;;;;;;;;;3537060;40;20112;-67
2021/05/29 07:14:50;;;;;;;46.20;15.40;;;;;;;;;;3538124;40;20050;-67
2021/05/29 07:17:16;;;;;;;155.90;27.48;;;;;;;;;;3532248;40;20043;-67
2021/05/29 07:19:42;;;;;;;209.95;31.05;;;;;;;;;;3536978;40;20841;-67
2021/05/29 07:22:08;;;;;;;164.13;25.90;;;;;;;;;;3535046;40;20042;-69
2021/05/29 07:24:35;;;;;;;160.60;26.67;;;;;;;;;;3535023;40;20031;-67
2021/05/29 07:27:02;;;;;;;96.88;21.20;;;;;;;;;;3536346;40;20035;-67
2021/05/29 07:29:28;;;;;;;79.07;20.02;;;;;;;;;;3536728;40;20039;-67
2021/05/29 07:31:54;;;;;;;91.18;19.67;;;;;;;;;;3534563;40;20046;-67
2021/05/29 07:34:22;;;;;;;97.45;19.70;;;;;;;;;;3538486;40;20038;-65
2021/05/29 07:36:49;;;;;;;116.05;20.70;;;;;;;;;;3536174;40;20780;-70
2021/05/29 07:39:15;;;;;;;109.43;19.42;;;;;;;;;;3538684;40;20031;-68
2021/05/29 07:41:41;;;;;;;110.47;19.00;;;;;;;;;;3539142;40;20133;-68
2021/05/29 07:44:07;;;;;;;132.02;20.15;;;;;;;;;;3540540;40;20351;-66
2021/05/29 07:46:35;;;;;;;101.35;18.90;;;;;;;;;;3536180;40;20433;-66
2021/05/29 07:49:01;;;;;;;48.30;13.05;;;;;;;;;;3537967;40;20065;-68
2021/05/29 07:51:27;;;;;;;56.65;15.15;;;;;;;;;;3537907;40;20128;-69
2021/05/29 07:53:53;;;;;;;28.63;11.45;;;;;;;;;;3538453;40;20596;-67
2021/05/29 07:56:21;;;;;;;23.23;10.27;;;12.40;99.90;;;;;;3536462;40;20038;-66
2021/05/29 07:58:49;;;;;;;25.55;11.00;;;12.40;99.90;;;;;;3536986;40;20026;-66
2021/05/29 08:01:15;;;;;;;29.13;11.40;;;;;;;;;;3534175;40;20419;-68
2021/05/29 08:03:41;;;;;;;22.35;10.15;;;;;;;;;;3536805;40;20047;-67
2021/05/29 08:06:13;;;;;;;72.43;18.52;;;;;;;;;;3536710;40;20027;-67
2021/05/29 08:08:39;;;;;;;27.00;10.90;;;;;;;;;;3537945;40;20084;-68
2021/05/29 08:11:05;;;;;;;22.42;10.23;;;;;;;;;;3534643;40;20417;-68
2021/05/29 08:13:32;;;;;;;20.60;9.80;;;12.20;99.90;;;;;;3538602;40;20156;-66
2021/05/29 08:15:58;;;;;;;19.35;9.48;;;12.10;99.90;;;;;;3536689;40;20039;-67
2021/05/29 08:18:25;;;;;;;23.92;10.48;;;;;;;;;;3539598;40;20050;-67
2021/05/29 08:20:53;;;;;;;17.92;8.93;;;;;;;;;;3539330;40;20057;-68
2021/05/29 08:23:19;;;;;;;21.67;10.48;;;;;;;;;;3539800;40;20031;-68
2021/05/29 08:25:46;;;;;;;16.77;9.18;;;;;;;;;;3533965;40;20124;-67
2021/05/29 08:28:12;;;;;;;17.60;9.27;;;;;;;;;;3534408;40;20078;-68
2021/05/29 08:30:38;;;;;;;17.13;8.75;;;12.00;99.90;;;;;;3538319;40;20089;-68
2021/05/29 08:33:05;;;;;;;24.55;9.63;;;12.30;99.90;;;;;;3537197;40;20050;-66
2021/05/29 08:35:31;;;;;;;15.70;9.35;;;12.40;99.90;;;;;;3537529;40;20035;-67
2021/05/29 08:37:57;;;;;;;17.88;9.18;;;12.50;99.90;;;;;;3534897;40;20041;-67
2021/05/29 08:40:23;;;;;;;19.85;10.13;;;12.50;99.90;;;;;;3538718;40;20449;-66
2021/05/29 08:42:49;;;;;;;18.50;9.95;;;12.50;99.90;;;;;;3537808;40;20098;-66
2021/05/29 08:45:16;;;;;;;24.45;9.95;;;12.30;99.90;;;;;;3536523;40;20893;-68
2021/05/29 08:47:42;;;;;;;22.58;9.68;;;12.20;99.90;;;;;;3536731;40;20041;-68
2021/05/29 08:50:09;;;;;;;17.83;9.82;;;12.20;99.90;;;;;;3537942;40;20031;-66
2021/05/29 08:52:36;;;;;;;20.50;9.20;;;12.40;99.90;;;;;;3537898;40;20066;-67
2021/05/29 08:55:05;;;;;;;19.02;9.63;;;12.80;99.90;;;;;;3537855;40;20057;-65
2021/05/29 08:57:30;;;;;;;14.95;8.07;;;13.90;99.90;;;;;;3535372;40;20053;-67
2021/05/29 08:59:56;;;;;;;20.48;8.65;;;13.20;99.90;;;;;;3531975;40;20047;-67
2021/05/29 09:02:22;;;;;;;19.70;8.98;;;12.60;99.90;;;;;;3538128;40;20117;-67
2021/05/29 09:05:10;;;;;;;17.05;8.50;;;13.00;99.90;;;;;;3539883;40;20086;-68
2021/05/29 09:07:35;;;;;;;16.63;8.93;;;13.70;99.90;;;;;;3537779;40;20061;-66
2021/05/29 09:10:21;;;;;;;19.77;8.88;;;13.30;99.90;;;;;;3536218;40;20084;-65
2021/05/29 09:13:09;;;;;;;20.42;8.70;;;13.60;99.90;;;;;;3536903;40;20042;-67
2021/05/29 09:15:54;;;;;;;17.75;8.90;;;13.80;99.90;;;;;;3534001;40;20699;-66
2021/05/29 09:18:30;;;;;;;20.27;8.83;;;13.70;99.90;;;;;;3536165;40;20046;-67
2021/05/29 09:21:30;;;;;;;20.10;8.15;;;;;;;;;;3537837;40;20054;-66
2021/05/29 09:24:02;;;;;;;16.75;8.45;;;14.20;99.90;;;;;;3539320;40;20328;-69
2021/05/29 09:26:51;;;;;;;16.50;7.68;;;13.80;99.90;;;;;;3536956;40;20306;-67
2021/05/29 09:29:35;;;;;;;16.10;8.38;;;14.30;99.90;;;;;;3536552;40;20038;-68
2021/05/29 09:32:07;;;;;;;16.60;7.82;;;13.90;99.90;;;;;;3540683;40;20046;-66
2021/05/29 09:34:46;;;;;;;17.88;8.10;;;13.80;99.90;;;;;;3537532;40;20046;-66
2021/05/29 09:37:11;;;;;;;16.95;7.88;;;14.00;99.90;;;;;;3537438;40;20046;-67
2021/05/29 09:39:40;;;;;;;18.73;7.30;;;13.70;99.90;;;;;;3537203;40;20089;-67
2021/05/29 09:42:08;;;;;;;16.23;7.88;;;14.30;99.90;;;;;;3538559;40;20452;-66
2021/05/29 09:44:34;;;;;;;16.08;7.13;;;14.50;99.90;;;;;;3538199;40;20507;-67
2021/05/29 09:47:03;;;;;;;12.90;7.18;;;14.70;99.90;;;;;;3532291;40;20045;-67
2021/05/29 09:49:47;;;;;;;16.17;7.80;;;14.90;99.90;;;;;;3534633;40;20038;-68
2021/05/29 09:52:30;;;;;;;14.50;7.15;;;15.10;99.90;;;;;;3536929;40;20051;-67
2021/05/29 09:55:09;;;;;;;13.82;7.32;;;16.20;99.90;;;;;;3538724;40;20042;-68
2021/05/29 09:57:52;;;;;;;17.27;7.00;;;16.30;99.90;;;;;;3539544;40;20042;-67
2021/05/29 10:00:19;;;;;;;14.38;6.35;;;16.20;99.90;;;;;;3539157;40;20034;-68
2021/05/29 10:03:02;;;;;;;14.35;6.88;;;16.10;99.90;;;;;;3537662;40;20046;-68
2021/05/29 10:05:30;;;;;;;12.85;6.95;;;15.60;99.90;;;;;;3536656;40;20046;-67
2021/05/29 10:07:55;;;;;;;12.75;7.20;;;16.10;99.90;;;;;;3536676;40;20034;-67
2021/05/29 10:10:21;;;;;;;15.40;7.68;;;15.30;99.90;;;;;;3538248;40;20530;-68
2021/05/29 10:12:47;;;;;;;12.02;6.88;;;;;;;;;;3538446;40;20530;-67
2021/05/29 10:15:13;;;;;;;12.90;7.38;;;;;;;;;;3538498;40;20080;-67
2021/05/29 10:17:39;;;;;;;13.00;6.47;;;14.90;99.90;;;;;;3536105;40;20030;-68
2021/05/29 10:20:07;;;;;;;17.75;7.20;;;14.90;99.90;;;;;;3532928;40;20031;-68
2021/05/29 10:22:33;;;;;;;13.85;6.13;;;14.50;99.90;;;;;;3536989;40;20031;-67
2021/05/29 10:25:00;;;;;;;16.50;6.80;;;15.50;99.90;;;;;;3539259;40;20072;-67
2021/05/29 10:27:30;;;;;;;13.15;6.55;;;15.00;99.90;;;;;;3535637;40;20102;-67
2021/05/29 10:29:59;;;;;;;11.25;6.72;;;14.80;99.90;;;;;;3536715;40;20043;-68
2021/05/29 10:32:27;;;;;;;11.10;6.70;;;14.50;99.90;;;;;;3536319;40;20074;-68
2021/05/29 10:35:10;;;;;;;16.38;7.07;;;14.60;99.90;;;;;;3539742;40;20050;-67
2021/05/29 10:37:39;;;;;;;18.05;7.65;;;14.50;99.90;;;;;;3539828;40;20612;-66
2021/05/29 10:40:31;;;;;;;17.25;7.15;;;14.40;99.90;;;;;;3536278;40;20341;-67
2021/05/29 10:43:20;;;;;;;13.00;7.40;;;14.40;99.90;;;;;;3535474;40;20038;-67
2021/05/29 10:45:52;;;;;;;14.10;7.10;;;14.70;99.90;;;;;;3535999;40;20625;-67
2021/05/29 10:48:19;;;;;;;11.90;7.03;;;14.20;99.90;;;;;;3537452;40;20038;-67
2021/05/29 10:51:05;;;;;;;14.50;7.78;;;16.00;99.90;;;;;;3538079;40;20041;-67
2021/05/29 10:53:33;;;;;;;14.65;7.05;;;15.20;99.90;;;;;;3536548;40;20049;-67
2021/05/29 10:56:18;;;;;;;17.48;7.65;;;15.40;99.90;;;;;;3537151;40;20042;-68
2021/05/29 10:59:13;;;;;;;13.55;7.15;;;15.20;99.90;;;;;;3536241;40;20093;-67
2021/05/29 11:01:45;;;;;;;14.50;6.80;;;;;;;;;;3532330;40;20043;-68
2021/05/29 11:04:18;;;;;;;13.48;7.22;;;14.60;99.90;;;;;;3536343;40;20060;-69
2021/05/29 11:06:54;;;;;;;17.70;8.02;;;14.50;99.90;;;;;;3535746;40;20039;-67
2021/05/29 11:09:26;;;;;;;15.18;6.65;;;14.60;99.90;;;;;;3536097;40;20081;-67
2021/05/29 11:11:58;;;;;;;10.18;6.22;;;14.60;99.90;;;;;;3536618;40;20038;-67
2021/05/29 11:14:30;;;;;;;14.45;6.90;;;14.40;99.90;;;;;;3532972;40;20563;-67
2021/05/29 11:16:57;;;;;;;15.35;6.80;;;;;;;;;;3532160;40;20043;-67
2021/05/29 11:19:33;;;;;;;13.18;6.00;;;15.60;99.90;;;;;;3538912;40;20034;-67
2021/05/29 11:21:59;;;;;;;14.82;6.32;;;;;;;;;;3536864;40;20042;-68
2021/05/29 11:24:26;;;;;;;11.57;5.65;;;;;;;;;;3536120;40;20439;-67
2021/05/29 11:26:53;;;;;;;17.73;5.97;;;;;;;;;;3538446;40;20043;-67
2021/05/29 11:29:19;;;;;;;12.00;5.68;;;;;;;;;;3532657;40;20886;-68
2021/05/29 11:31:46;;;;;;;14.05;6.15;;;;;;;;;;3530519;40;20034;-67
2021/05/29 11:34:12;;;;;;;11.73;5.20;;;;;;;;;;3533828;40;20633;-67
2021/05/29 11:36:40;;;;;;;13.05;5.50;;;17.60;99.90;;;;;;3535356;40;20651;-67
2021/05/29 11:39:11;;;;;;;12.73;5.13;;;;;;;;;;3536397;40;20037;-68
2021/05/29 11:41:37;;;;;;;14.48;5.45;;;;;;;;;;3533081;40;20053;-67
2021/05/29 11:44:05;;;;;;;12.60;5.53;;;;;;;;;;3539682;40;20340;-67
2021/05/29 11:46:32;;;;;;;17.35;6.45;;;;;;;;;;3531680;40;20046;-67
2021/05/29 11:48:59;;;;;;;9.55;5.40;;;;;;;;;;3536383;40;20034;-67
2021/05/29 11:51:26;;;;;;;15.60;5.63;;;;;;;;;;3535144;40;20058;-67
2021/05/29 11:53:54;;;;;;;9.85;5.53;;;;;;;;;;3537192;40;20042;-67
2021/05/29 11:56:21;;;;;;;13.15;5.40;;;;;;;;;;3540147;40;20082;-66
2021/05/29 11:58:51;;;;;;;13.07;5.05;;;;;;;;;;3538661;40;20030;-67
2021/05/29 12:01:19;;;;;;;14.77;4.93;;;;;;;;;;3532449;40;20357;-67
2021/05/29 12:03:47;;;;;;;12.50;5.20;;;;;;;;;;3533906;40;20143;-67
2021/05/29 12:06:13;;;;;;;11.23;5.13;;;;;;;;;;3535617;40;20038;-67
2021/05/29 12:09:00;;;;;;;9.63;5.25;;;;;;;;;;3532735;40;20045;-67
2021/05/29 12:11:27;;;;;;;12.27;5.53;;;;;;;;;;3531535;40;20051;-67
2021/05/29 12:14:01;;;;;;;11.25;4.63;;;;;;;;;;3534772;40;20057;-68
2021/05/29 12:16:28;;;;;;;9.75;4.60;;;;;;;;;;3536644;40;20041;-66
2021/05/29 12:18:54;;;;;;;9.77;4.68;;;;;;;;;;3537153;40;20167;-66
2021/05/29 12:21:21;;;;;;;11.10;4.18;;;;;;;;;;3534438;40;20049;-67
2021/05/29 12:23:57;;;;;;;8.57;4.00;;;;;;;;;;3537156;40;20074;-66
2021/05/29 12:26:24;;;;;;;8.25;4.32;;;;;;;;;;3537441;40;20039;-66
2021/05/29 12:28:50;;;;;;;6.97;4.18;;;;;;;;;;3535124;40;20035;-67
2021/05/29 12:31:18;;;;;;;7.78;4.43;;;;;;;;;;3535899;40;20050;-67
2021/05/29 12:33:45;;;;;;;11.52;4.50;;;;;;;;;;3538406;40;20035;-66
2021/05/29 12:36:14;;;;;;;7.78;3.70;;;;;;;;;;3540841;40;20042;-66
2021/05/29 12:38:54;;;;;;;10.13;3.72;;;20.80;92.30;;;;;;3539562;40;20436;-67
2021/05/29 12:41:23;;;;;;;11.73;3.88;;;21.60;89.40;;;;;;3536927;40;20066;-66
2021/05/29 12:44:07;;;;;;;6.88;3.75;;;22.10;87.80;;;;;;3537600;40;20031;-66
2021/05/29 12:46:33;;;;;;;7.55;3.55;;;22.40;85.60;;;;;;3539096;40;20143;-66
2021/05/29 12:49:06;;;;;;;7.50;4.15;;;21.80;84.40;;;;;;3533578;40;20584;-66
2021/05/29 12:51:44;;;;;;;8.75;4.00;;;;;;;;;;3533635;40;20117;-66
2021/05/29 12:54:14;;;;;;;6.75;3.47;;;18.90;93.40;;;;;;3535454;40;20039;-66
2021/05/29 12:56:55;;;;;;;9.98;4.75;;;19.00;94.50;;;;;;3535755;40;20039;-67
2021/05/29 12:59:26;;;;;;;6.60;4.28;;;19.40;94.20;;;;;;3536442;40;20041;-66
2021/05/29 13:07:41;;;;;;;7.70;3.90;;;22.40;85.70;;;;;;3535714;40;20047;-67
2021/05/29 13:13:00;;;;;;;5.97;4.72;;;22.20;83.20;;;;;;3537613;40;20054;-66
2021/05/29 13:15:26;;;;;;;7.63;3.40;;;21.20;84.00;;;;;;3537413;40;20042;-68
2021/05/29 13:18:14;;;;;;;8.95;4.13;;;20.80;88.00;;;;;;3535398;40;20046;-67
2021/05/29 13:20:41;;;;;;;12.40;4.03;;;;;;;;;;3534574;40;20422;-66
2021/05/29 13:23:09;;;;;;;7.70;3.65;;;;;;;;;;3534602;40;20051;-66
2021/05/29 13:25:38;;;;;;;9.77;5.05;;;;;;;;;;3534009;40;20097;-67
2021/05/29 13:28:09;;;;;;;4.72;3.42;;;;;;;;;;3532320;40;20055;-66
2021/05/29 13:30:34;;;;;;;9.07;4.32;;;23.30;79.00;;;;;;3538358;40;20062;-66
2021/05/29 13:33:06;;;;;;;6.90;3.50;;;22.70;77.80;;;;;;3538163;40;20116;-66
2021/05/29 13:35:33;;;;;;;8.75;4.22;;;22.30;80.90;;;;;;3537045;40;20038;-67
2021/05/29 13:37:59;;;;;;;6.95;3.63;;;22.80;78.30;;;;;;3535222;40;20031;-66
2021/05/29 13:40:26;;;;;;;5.85;3.80;;;;;;;;;;3535386;40;20060;-66
2021/05/29 13:42:52;;;;;;;5.35;3.40;;;22.90;74.70;;;;;;3533120;40;20034;-67
2021/05/29 13:45:25;;;;;;;6.78;3.60;;;;;;;;;;3533699;40;20042;-66
2021/05/29 13:47:52;;;;;;;6.63;4.07;;;;;;;;;;3536460;40;20031;-66
2021/05/29 13:50:19;;;;;;;8.90;3.85;;;20.80;81.90;;;;;;3536276;40;20060;-66
2021/05/29 13:52:45;;;;;;;6.18;3.83;;;20.70;82.10;;;;;;3535814;40;20074;-66
2021/05/29 13:55:12;;;;;;;9.48;5.20;;;;;;;;;;3539540;40;20059;-66
2021/05/29 13:57:38;;;;;;;15.02;6.40;;;;;;;;;;3531328;40;20034;-66
2021/05/29 14:00:06;;;;;;;20.35;7.43;;;;;;;;;;3532989;40;20245;-66
2021/05/29 14:02:34;;;;;;;17.13;6.82;;;;;;;;;;3532122;40;20039;-67
2021/05/29 14:05:00;;;;;;;13.85;4.57;;;;;;;;;;3533878;40;20031;-66
2021/05/29 14:07:26;;;;;;;9.20;4.13;;;;;;;;;;3533358;40;20051;-66
2021/05/29 14:09:52;;;;;;;10.35;3.80;;;22.50;82.70;;;;;;3538437;40;20039;-67
2021/05/29 14:12:18;;;;;;;11.55;3.45;;;22.50;83.50;;;;;;3538002;40;20041;-67
2021/05/29 14:14:43;;;;;;;6.30;3.35;;;23.10;76.90;;;;;;3534918;40;20088;-67
2021/05/29 14:17:09;;;;;;;6.82;3.47;;;23.40;76.00;;;;;;3535582;40;20591;-67